sensor_id;sensor_type;location;lat;lon;timestamp;pressure;altitude;pressure_sealevel;temperature
14023;BMP180;7086;48.116;11.580;2023-02-18T00:00:22;96176.00;;;16.40
14023;BMP180;7086;48.116;11.580;2023-02-18T00:02:51;96146.00;;;16.40
14023;BMP180;7086;48.116;11.580;2023-02-18T00:05:21;96164.00;;;16.30
14023;BMP180;7086;48.116;11.580;2023-02-18T00:07:52;96163.00;;;16.30
14023;BMP180;7086;48.116;11.580;2023-02-18T00:10:42;96183.00;;;16.10
14023;BMP180;7086;48.116;11.580;2023-02-18T00:13:24;96160.00;;;16.20
14023;BMP180;7086;48.116;11.580;2023-02-18T00:15:52;96148.00;;;16.20
14023;BMP180;7086;48.116;11.580;2023-02-18T00:18:32;96169.00;;;16.10
14023;BMP180;7086;48.116;11.580;2023-02-18T00:21:10;96139.00;;;16.10
14023;BMP180;7086;48.116;11.580;2023-02-18T00:23:38;96141.00;;;16.10
14023;BMP180;7086;48.116;11.580;2023-02-18T00:26:20;96160.00;;;16.10
14023;BMP180;7086;48.116;11.580;2023-02-18T00:28:48;96136.00;;;16.10
14023;BMP180;7086;48.116;11.580;2023-02-18T00:31:21;96139.00;;;15.90
14023;BMP180;7086;48.116;11.580;2023-02-18T00:33:50;96125.00;;;16.00
14023;BMP180;7086;48.116;11.580;2023-02-18T00:36:20;96136.00;;;16.00
14023;BMP180;7086;48.116;11.580;2023-02-18T00:38:50;96141.00;;;16.00
14023;BMP180;7086;48.116;11.580;2023-02-18T00:41:20;96159.00;;;16.00
14023;BMP180;7086;48.116;11.580;2023-02-18T00:43:48;96155.00;;;15.90
14023;BMP180;7086;48.116;11.580;2023-02-18T00:46:16;96134.00;;;15.90
14023;BMP180;7086;48.116;11.580;2023-02-18T00:48:44;96141.00;;;15.90
14023;BMP180;7086;48.116;11.580;2023-02-18T00:51:15;96020.00;;;15.80
14023;BMP180;7086;48.116;11.580;2023-02-18T00:53:43;96136.00;;;15.80
14023;BMP180;7086;48.116;11.580;2023-02-18T00:56:11;96135.00;;;15.80
14023;BMP180;7086;48.116;11.580;2023-02-18T00:58:40;96147.00;;;15.80
14023;BMP180;7086;48.116;11.580;2023-02-18T01:01:21;96140.00;;;15.80
14023;BMP180;7086;48.116;11.580;2023-02-18T01:03:50;96149.00;;;15.70
14023;BMP180;7086;48.116;11.580;2023-02-18T01:06:20;96183.00;;;15.70
14023;BMP180;7086;48.116;11.580;2023-02-18T01:08:48;96126.00;;;15.70
14023;BMP180;7086;48.116;11.580;2023-02-18T01:11:16;96121.00;;;15.60
14023;BMP180;7086;48.116;11.580;2023-02-18T01:13:44;96133.00;;;15.60
14023;BMP180;7086;48.116;11.580;2023-02-18T01:16:12;96132.00;;;15.60
14023;BMP180;7086;48.116;11.580;2023-02-18T01:18:42;96129.00;;;15.60
14023;BMP180;7086;48.116;11.580;2023-02-18T01:21:10;96130.00;;;15.60
14023;BMP180;7086;48.116;11.580;2023-02-18T01:23:41;96060.00;;;15.60
14023;BMP180;7086;48.116;11.580;2023-02-18T01:26:10;96121.00;;;15.50
14023;BMP180;7086;48.116;11.580;2023-02-18T01:28:38;96151.00;;;15.60
14023;BMP180;7086;48.116;11.580;2023-02-18T01:31:10;96116.00;;;15.60
14023;BMP180;7086;48.116;11.580;2023-02-18T01:33:42;96117.00;;;15.60
14023;BMP180;7086;48.116;11.580;2023-02-18T01:36:11;96078.00;;;15.40
14023;BMP180;7086;48.116;11.580;2023-02-18T01:38:40;96138.00;;;15.50
14023;BMP180;7086;48.116;11.580;2023-02-18T01:41:08;96116.00;;;15.50
14023;BMP180;7086;48.116;11.580;2023-02-18T01:43:36;96098.00;;;15.40
14023;BMP180;7086;48.116;11.580;2023-02-18T01:46:16;96105.00;;;15.30
14023;BMP180;7086;48.116;11.580;2023-02-18T01:48:49;96058.00;;;15.50
14023;BMP180;7086;48.116;11.580;2023-02-18T01:51:24;96032.00;;;15.50
14023;BMP180;7086;48.116;11.580;2023-02-18T01:53:59;96105.00;;;15.30
14023;BMP180;7086;48.116;11.580;2023-02-18T01:56:34;96016.00;;;15.50
14023;BMP180;7086;48.116;11.580;2023-02-18T01:59:07;96071.00;;;15.50
14023;BMP180;7086;48.116;11.580;2023-02-18T02:01:36;96087.00;;;15.50
14023;BMP180;7086;48.116;11.580;2023-02-18T02:04:05;96130.00;;;15.50
14023;BMP180;7086;48.116;11.580;2023-02-18T02:06:32;96114.00;;;15.60
14023;BMP180;7086;48.116;11.580;2023-02-18T02:09:06;96052.00;;;15.60
14023;BMP180;7086;48.116;11.580;2023-02-18T02:12:19;96039.00;;;15.60
14023;BMP180;7086;48.116;11.580;2023-02-18T02:15:23;96102.00;;;15.60
14023;BMP180;7086;48.116;11.580;2023-02-18T02:18:07;96147.00;;;15.70
14023;BMP180;7086;48.116;11.580;2023-02-18T02:25:02;96051.00;;;15.70
14023;BMP180;7086;48.116;11.580;2023-02-18T02:28:25;96087.00;;;15.50
14023;BMP180;7086;48.116;11.580;2023-02-18T02:31:40;96093.00;;;15.70
14023;BMP180;7086;48.116;11.580;2023-02-18T02:34:41;96115.00;;;15.70
14023;BMP180;7086;48.116;11.580;2023-02-18T02:37:21;96107.00;;;15.70
14023;BMP180;7086;48.116;11.580;2023-02-18T02:40:03;96045.00;;;15.80
14023;BMP180;7086;48.116;11.580;2023-02-18T02:42:44;96025.00;;;15.80
14023;BMP180;7086;48.116;11.580;2023-02-18T02:45:23;96085.00;;;15.80
14023;BMP180;7086;48.116;11.580;2023-02-18T02:48:03;96081.00;;;15.80
14023;BMP180;7086;48.116;11.580;2023-02-18T02:50:43;96067.00;;;15.80
14023;BMP180;7086;48.116;11.580;2023-02-18T02:53:18;96084.00;;;15.90
14023;BMP180;7086;48.116;11.580;2023-02-18T02:55:48;96080.00;;;15.90
14023;BMP180;7086;48.116;11.580;2023-02-18T02:58:17;96068.00;;;15.90
14023;BMP180;7086;48.116;11.580;2023-02-18T03:01:07;96066.00;;;16.00
14023;BMP180;7086;48.116;11.580;2023-02-18T03:04:17;96052.00;;;16.00
14023;BMP180;7086;48.116;11.580;2023-02-18T03:07:20;96071.00;;;15.90
14023;BMP180;7086;48.116;11.580;2023-02-18T03:10:10;96080.00;;;16.00
14023;BMP180;7086;48.116;11.580;2023-02-18T03:12:50;96017.00;;;16.00
14023;BMP180;7086;48.116;11.580;2023-02-18T03:15:24;96086.00;;;15.80
14023;BMP180;7086;48.116;11.580;2023-02-18T03:18:01;96078.00;;;16.00
14023;BMP180;7086;48.116;11.580;2023-02-18T03:20:35;95949.00;;;16.00
14023;BMP180;7086;48.116;11.580;2023-02-18T03:23:09;95982.00;;;16.00
14023;BMP180;7086;48.116;11.580;2023-02-18T03:25:39;96015.00;;;15.60
14023;BMP180;7086;48.116;11.580;2023-02-18T03:28:11;96029.00;;;16.10
14023;BMP180;7086;48.116;11.580;2023-02-18T03:30:45;96078.00;;;16.10
14023;BMP180;7086;48.116;11.580;2023-02-18T03:33:18;96078.00;;;16.10
14023;BMP180;7086;48.116;11.580;2023-02-18T03:35:49;95985.00;;;16.10
14023;BMP180;7086;48.116;11.580;2023-02-18T03:38:23;96088.00;;;16.00
14023;BMP180;7086;48.116;11.580;2023-02-18T03:40:52;96060.00;;;16.10
14023;BMP180;7086;48.116;11.580;2023-02-18T03:43:19;96072.00;;;16.10
14023;BMP180;7086;48.116;11.580;2023-02-18T03:45:47;96058.00;;;16.10
14023;BMP180;7086;48.116;11.580;2023-02-18T03:48:15;96060.00;;;16.10
14023;BMP180;7086;48.116;11.580;2023-02-18T03:50:47;95967.00;;;15.90
14023;BMP180;7086;48.116;11.580;2023-02-18T03:53:18;96057.00;;;16.00
14023;BMP180;7086;48.116;11.580;2023-02-18T03:55:46;96054.00;;;16.10
14023;BMP180;7086;48.116;11.580;2023-02-18T03:58:13;96061.00;;;16.10
14023;BMP180;7086;48.116;11.580;2023-02-18T04:00:41;96056.00;;;16.10
14023;BMP180;7086;48.116;11.580;2023-02-18T04:03:09;96057.00;;;16.10
14023;BMP180;7086;48.116;11.580;2023-02-18T04:05:36;96065.00;;;16.10
14023;BMP180;7086;48.116;11.580;2023-02-18T04:08:04;96060.00;;;16.10
14023;BMP180;7086;48.116;11.580;2023-02-18T04:10:33;96066.00;;;16.00
14023;BMP180;7086;48.116;11.580;2023-02-18T04:13:01;96056.00;;;16.10
14023;BMP180;7086;48.116;11.580;2023-02-18T04:15:28;96063.00;;;16.10
14023;BMP180;7086;48.116;11.580;2023-02-18T04:17:56;96064.00;;;16.10
14023;BMP180;7086;48.116;11.580;2023-02-18T04:20:24;96066.00;;;16.10
14023;BMP180;7086;48.116;11.580;2023-02-18T04:22:51;96062.00;;;16.00
14023;BMP180;7086;48.116;11.580;2023-02-18T04:25:19;96065.00;;;16.00
14023;BMP180;7086;48.116;11.580;2023-02-18T04:27:47;96059.00;;;16.00
14023;BMP180;7086;48.116;11.580;2023-02-18T04:30:15;95987.00;;;16.00
14023;BMP180;7086;48.116;11.580;2023-02-18T04:32:42;96056.00;;;16.00
14023;BMP180;7086;48.116;11.580;2023-02-18T04:35:10;96052.00;;;16.00
14023;BMP180;7086;48.116;11.580;2023-02-18T04:37:37;96053.00;;;16.00
14023;BMP180;7086;48.116;11.580;2023-02-18T04:40:07;96029.00;;;16.00
14023;BMP180;7086;48.116;11.580;2023-02-18T04:42:34;96067.00;;;16.00
14023;BMP180;7086;48.116;11.580;2023-02-18T04:45:04;96071.00;;;16.00
14023;BMP180;7086;48.116;11.580;2023-02-18T04:47:32;96054.00;;;16.00
14023;BMP180;7086;48.116;11.580;2023-02-18T04:49:59;96064.00;;;16.00
14023;BMP180;7086;48.116;11.580;2023-02-18T04:52:32;96032.00;;;15.60
14023;BMP180;7086;48.116;11.580;2023-02-18T04:55:00;96063.00;;;15.90
14023;BMP180;7086;48.116;11.580;2023-02-18T04:57:29;96074.00;;;15.90
14023;BMP180;7086;48.116;11.580;2023-02-18T04:59:57;96069.00;;;15.90
14023;BMP180;7086;48.116;11.580;2023-02-18T05:02:26;96075.00;;;15.90
14023;BMP180;7086;48.116;11.580;2023-02-18T05:04:54;96072.00;;;15.90
14023;BMP180;7086;48.116;11.580;2023-02-18T05:07:22;96063.00;;;15.90
14023;BMP180;7086;48.116;11.580;2023-02-18T05:09:49;96071.00;;;15.90
14023;BMP180;7086;48.116;11.580;2023-02-18T05:12:17;96061.00;;;15.90
14023;BMP180;7086;48.116;11.580;2023-02-18T05:14:45;96063.00;;;15.70
14023;BMP180;7086;48.116;11.580;2023-02-18T05:17:13;96053.00;;;15.90
14023;BMP180;7086;48.116;11.580;2023-02-18T05:19:45;96005.00;;;15.80
14023;BMP180;7086;48.116;11.580;2023-02-18T05:22:13;96049.00;;;15.80
14023;BMP180;7086;48.116;11.580;2023-02-18T05:24:45;96056.00;;;15.80
14023;BMP180;7086;48.116;11.580;2023-02-18T05:27:13;96053.00;;;15.80
14023;BMP180;7086;48.116;11.580;2023-02-18T05:29:42;96047.00;;;15.80
14023;BMP180;7086;48.116;11.580;2023-02-18T05:32:24;96039.00;;;15.90
14023;BMP180;7086;48.116;11.580;2023-02-18T05:34:54;95945.00;;;15.80
14023;BMP180;7086;48.116;11.580;2023-02-18T05:37:23;96043.00;;;15.80
14023;BMP180;7086;48.116;11.580;2023-02-18T05:39:50;96023.00;;;15.80
14023;BMP180;7086;48.116;11.580;2023-02-18T05:42:18;96046.00;;;15.80
14023;BMP180;7086;48.116;11.580;2023-02-18T05:44:46;96043.00;;;15.80
14023;BMP180;7086;48.116;11.580;2023-02-18T05:47:14;96056.00;;;15.80
14023;BMP180;7086;48.116;11.580;2023-02-18T05:49:43;95987.00;;;15.80
14023;BMP180;7086;48.116;11.580;2023-02-18T05:52:13;96094.00;;;15.90
14023;BMP180;7086;48.116;11.580;2023-02-18T05:54:41;96024.00;;;15.80
14023;BMP180;7086;48.116;11.580;2023-02-18T05:57:10;96044.00;;;15.80
14023;BMP180;7086;48.116;11.580;2023-02-18T05:59:40;96048.00;;;15.90
14023;BMP180;7086;48.116;11.580;2023-02-18T06:02:08;96006.00;;;15.80
14023;BMP180;7086;48.116;11.580;2023-02-18T06:04:41;96050.00;;;15.90
14023;BMP180;7086;48.116;11.580;2023-02-18T06:07:13;96040.00;;;15.90
14023;BMP180;7086;48.116;11.580;2023-02-18T06:09:40;96042.00;;;15.90
14023;BMP180;7086;48.116;11.580;2023-02-18T06:12:13;96032.00;;;15.90
14023;BMP180;7086;48.116;11.580;2023-02-18T06:14:41;96062.00;;;15.90
14023;BMP180;7086;48.116;11.580;2023-02-18T06:17:09;96048.00;;;15.90
14023;BMP180;7086;48.116;11.580;2023-02-18T06:19:38;96029.00;;;15.80
14023;BMP180;7086;48.116;11.580;2023-02-18T06:22:06;96072.00;;;15.90
14023;BMP180;7086;48.116;11.580;2023-02-18T06:24:36;96058.00;;;15.90
14023;BMP180;7086;48.116;11.580;2023-02-18T06:27:04;96059.00;;;15.90
14023;BMP180;7086;48.116;11.580;2023-02-18T06:29:37;96065.00;;;15.90
14023;BMP180;7086;48.116;11.580;2023-02-18T06:32:07;96065.00;;;15.90
14023;BMP180;7086;48.116;11.580;2023-02-18T06:34:35;96067.00;;;16.00
14023;BMP180;7086;48.116;11.580;2023-02-18T06:37:03;96069.00;;;16.00
14023;BMP180;7086;48.116;11.580;2023-02-18T06:39:33;96060.00;;;16.00
14023;BMP180;7086;48.116;11.580;2023-02-18T06:42:04;96083.00;;;16.00
14023;BMP180;7086;48.116;11.580;2023-02-18T06:44:32;96064.00;;;16.00
14023;BMP180;7086;48.116;11.580;2023-02-18T06:47:01;96077.00;;;16.00
14023;BMP180;7086;48.116;11.580;2023-02-18T06:49:29;95987.00;;;16.00
14023;BMP180;7086;48.116;11.580;2023-02-18T06:51:59;96051.00;;;16.10
14023;BMP180;7086;48.116;11.580;2023-02-18T06:54:28;96074.00;;;16.10
14023;BMP180;7086;48.116;11.580;2023-02-18T06:56:57;96049.00;;;16.10
14023;BMP180;7086;48.116;11.580;2023-02-18T06:59:29;96040.00;;;16.10
14023;BMP180;7086;48.116;11.580;2023-02-18T07:01:56;96013.00;;;16.10
14023;BMP180;7086;48.116;11.580;2023-02-18T07:04:28;95954.00;;;16.20
14023;BMP180;7086;48.116;11.580;2023-02-18T07:07:10;96054.00;;;16.20
14023;BMP180;7086;48.116;11.580;2023-02-18T07:09:39;96044.00;;;16.30
14023;BMP180;7086;48.116;11.580;2023-02-18T07:12:10;96045.00;;;16.30
14023;BMP180;7086;48.116;11.580;2023-02-18T07:14:43;96065.00;;;16.20
14023;BMP180;7086;48.116;11.580;2023-02-18T07:17:13;96032.00;;;16.30
14023;BMP180;7086;48.116;11.580;2023-02-18T07:19:56;96052.00;;;16.20
14023;BMP180;7086;48.116;11.580;2023-02-18T07:22:26;96058.00;;;16.40
14023;BMP180;7086;48.116;11.580;2023-02-18T07:24:55;96038.00;;;16.40
14023;BMP180;7086;48.116;11.580;2023-02-18T07:27:24;95963.00;;;16.30
14023;BMP180;7086;48.116;11.580;2023-02-18T07:30:06;96048.00;;;16.40
14023;BMP180;7086;48.116;11.580;2023-02-18T07:34:16;95992.00;;;16.40
14023;BMP180;7086;48.116;11.580;2023-02-18T07:40:32;95979.00;;;16.20
14023;BMP180;7086;48.116;11.580;2023-02-18T07:47:07;96065.00;;;16.40
14023;BMP180;7086;48.116;11.580;2023-02-18T07:53:20;96046.00;;;16.40
14023;BMP180;7086;48.116;11.580;2023-02-18T07:56:25;95964.00;;;16.20
14023;BMP180;7086;48.116;11.580;2023-02-18T08:07:18;96026.00;;;16.10
14023;BMP180;7086;48.116;11.580;2023-02-18T08:09:53;96050.00;;;16.40
14023;BMP180;7086;48.116;11.580;2023-02-18T08:12:28;96025.00;;;16.50
14023;BMP180;7086;48.116;11.580;2023-02-18T08:15:09;95943.00;;;16.40
14023;BMP180;7086;48.116;11.580;2023-02-18T08:17:38;96022.00;;;16.50
14023;BMP180;7086;48.116;11.580;2023-02-18T08:20:08;95987.00;;;16.50
14023;BMP180;7086;48.116;11.580;2023-02-18T08:22:41;96008.00;;;16.70
14023;BMP180;7086;48.116;11.580;2023-02-18T08:25:09;96014.00;;;16.70
14023;BMP180;7086;48.116;11.580;2023-02-18T08:27:38;96036.00;;;16.70
14023;BMP180;7086;48.116;11.580;2023-02-18T08:30:12;96030.00;;;16.70
14023;BMP180;7086;48.116;11.580;2023-02-18T08:32:54;96010.00;;;16.50
14023;BMP180;7086;48.116;11.580;2023-02-18T08:35:23;95996.00;;;16.80
14023;BMP180;7086;48.116;11.580;2023-02-18T08:38:07;96038.00;;;16.90
14023;BMP180;7086;48.116;11.580;2023-02-18T08:40:37;95918.00;;;16.90
14023;BMP180;7086;48.116;11.580;2023-02-18T08:43:21;95997.00;;;16.80
14023;BMP180;7086;48.116;11.580;2023-02-18T08:46:04;95990.00;;;17.00
14023;BMP180;7086;48.116;11.580;2023-02-18T08:48:47;96017.00;;;17.10
14023;BMP180;7086;48.116;11.580;2023-02-18T08:51:34;95981.00;;;17.20
14023;BMP180;7086;48.116;11.580;2023-02-18T08:54:07;95962.00;;;17.30
14023;BMP180;7086;48.116;11.580;2023-02-18T08:56:48;95933.00;;;17.50
14023;BMP180;7086;48.116;11.580;2023-02-18T08:59:16;95979.00;;;17.70
14023;BMP180;7086;48.116;11.580;2023-02-18T09:01:44;95975.00;;;17.90
14023;BMP180;7086;48.116;11.580;2023-02-18T09:04:13;95940.00;;;18.10
14023;BMP180;7086;48.116;11.580;2023-02-18T09:06:48;95951.00;;;18.10
14023;BMP180;7086;48.116;11.580;2023-02-18T09:13:03;95985.00;;;18.30
14023;BMP180;7086;48.116;11.580;2023-02-18T09:15:45;95977.00;;;18.40
14023;BMP180;7086;48.116;11.580;2023-02-18T09:18:35;95971.00;;;18.60
14023;BMP180;7086;48.116;11.580;2023-02-18T09:21:06;95916.00;;;18.70
14023;BMP180;7086;48.116;11.580;2023-02-18T09:23:49;95963.00;;;18.80
14023;BMP180;7086;48.116;11.580;2023-02-18T09:26:21;95977.00;;;18.80
14023;BMP180;7086;48.116;11.580;2023-02-18T09:28:54;95955.00;;;18.70
14023;BMP180;7086;48.116;11.580;2023-02-18T09:31:25;95887.00;;;18.70
14023;BMP180;7086;48.116;11.580;2023-02-18T09:33:56;95979.00;;;18.70
14023;BMP180;7086;48.116;11.580;2023-02-18T09:36:31;95848.00;;;18.70
14023;BMP180;7086;48.116;11.580;2023-02-18T09:39:07;95955.00;;;18.50
14023;BMP180;7086;48.116;11.580;2023-02-18T09:41:43;95945.00;;;18.60
14023;BMP180;7086;48.116;11.580;2023-02-18T09:44:31;95938.00;;;18.70
14023;BMP180;7086;48.116;11.580;2023-02-18T09:47:12;95948.00;;;18.70
14023;BMP180;7086;48.116;11.580;2023-02-18T09:49:44;95943.00;;;18.70
14023;BMP180;7086;48.116;11.580;2023-02-18T09:52:19;95921.00;;;18.80
14023;BMP180;7086;48.116;11.580;2023-02-18T09:54:51;95937.00;;;19.00
14023;BMP180;7086;48.116;11.580;2023-02-18T09:57:29;95950.00;;;19.20
14023;BMP180;7086;48.116;11.580;2023-02-18T10:00:30;95979.00;;;19.60
14023;BMP180;7086;48.116;11.580;2023-02-18T10:03:11;95865.00;;;20.00
14023;BMP180;7086;48.116;11.580;2023-02-18T10:05:59;95919.00;;;20.30
14023;BMP180;7086;48.116;11.580;2023-02-18T10:08:42;95934.00;;;20.40
14023;BMP180;7086;48.116;11.580;2023-02-18T10:11:30;95930.00;;;21.00
14023;BMP180;7086;48.116;11.580;2023-02-18T10:14:01;95861.00;;;21.20
14023;BMP180;7086;48.116;11.580;2023-02-18T10:16:35;95826.00;;;21.30
14023;BMP180;7086;48.116;11.580;2023-02-18T10:19:20;95853.00;;;21.70
14023;BMP180;7086;48.116;11.580;2023-02-18T10:21:50;95900.00;;;21.80
14023;BMP180;7086;48.116;11.580;2023-02-18T10:24:29;95912.00;;;22.00
14023;BMP180;7086;48.116;11.580;2023-02-18T10:27:37;95884.00;;;22.10
14023;BMP180;7086;48.116;11.580;2023-02-18T10:30:26;95845.00;;;22.10
14023;BMP180;7086;48.116;11.580;2023-02-18T10:33:16;95881.00;;;22.10
14023;BMP180;7086;48.116;11.580;2023-02-18T10:35:53;95891.00;;;22.20
14023;BMP180;7086;48.116;11.580;2023-02-18T10:38:40;95862.00;;;22.40
14023;BMP180;7086;48.116;11.580;2023-02-18T10:41:34;95869.00;;;22.50
14023;BMP180;7086;48.116;11.580;2023-02-18T10:44:32;95834.00;;;22.60
14023;BMP180;7086;48.116;11.580;2023-02-18T10:47:19;95844.00;;;22.70
14023;BMP180;7086;48.116;11.580;2023-02-18T10:50:29;95864.00;;;22.80
14023;BMP180;7086;48.116;11.580;2023-02-18T10:53:18;95846.00;;;22.80
14023;BMP180;7086;48.116;11.580;2023-02-18T10:56:48;95797.00;;;22.90
14023;BMP180;7086;48.116;11.580;2023-02-18T10:59:24;95843.00;;;22.90
14023;BMP180;7086;48.116;11.580;2023-02-18T11:02:44;95843.00;;;22.90
14023;BMP180;7086;48.116;11.580;2023-02-18T11:05:36;95839.00;;;23.00
14023;BMP180;7086;48.116;11.580;2023-02-18T11:08:35;95813.00;;;23.00
14023;BMP180;7086;48.116;11.580;2023-02-18T13:46:54;95700.00;;;20.70
14023;BMP180;7086;48.116;11.580;2023-02-18T13:49:32;95754.00;;;20.70
14023;BMP180;7086;48.116;11.580;2023-02-18T13:57:29;95690.00;;;20.70
14023;BMP180;7086;48.116;11.580;2023-02-18T14:00:20;95699.00;;;20.60
14023;BMP180;7086;48.116;11.580;2023-02-18T14:10:36;95587.00;;;20.30
14023;BMP180;7086;48.116;11.580;2023-02-18T14:21:42;95651.00;;;20.00
14023;BMP180;7086;48.116;11.580;2023-02-18T14:24:20;95651.00;;;19.90
14023;BMP180;7086;48.116;11.580;2023-02-18T14:27:16;95631.00;;;19.90
14023;BMP180;7086;48.116;11.580;2023-02-18T14:29:44;95691.00;;;19.80
14023;BMP180;7086;48.116;11.580;2023-02-18T14:32:19;95684.00;;;19.80
14023;BMP180;7086;48.116;11.580;2023-02-18T14:35:26;95647.00;;;19.70
14023;BMP180;7086;48.116;11.580;2023-02-18T14:38:32;95608.00;;;19.60
14023;BMP180;7086;48.116;11.580;2023-02-18T14:41:37;95685.00;;;19.50
14023;BMP180;7086;48.116;11.580;2023-02-18T14:44:44;95721.00;;;19.50
14023;BMP180;7086;48.116;11.580;2023-02-18T14:47:48;95688.00;;;19.40
14023;BMP180;7086;48.116;11.580;2023-02-18T14:50:42;95683.00;;;19.40
14023;BMP180;7086;48.116;11.580;2023-02-18T14:53:26;95620.00;;;19.20
14023;BMP180;7086;48.116;11.580;2023-02-18T14:56:37;95592.00;;;19.20
14023;BMP180;7086;48.116;11.580;2023-02-18T14:59:27;95708.00;;;19.20
14023;BMP180;7086;48.116;11.580;2023-02-18T15:01:57;95695.00;;;19.10
14023;BMP180;7086;48.116;11.580;2023-02-18T15:04:25;95679.00;;;19.10
14023;BMP180;7086;48.116;11.580;2023-02-18T15:07:10;95614.00;;;19.10
14023;BMP180;7086;48.116;11.580;2023-02-18T15:09:54;95561.00;;;19.00
14023;BMP180;7086;48.116;11.580;2023-02-18T15:12:35;95682.00;;;19.00
14023;BMP180;7086;48.116;11.580;2023-02-18T15:15:36;95694.00;;;18.90
14023;BMP180;7086;48.116;11.580;2023-02-18T15:18:21;95690.00;;;18.80
14023;BMP180;7086;48.116;11.580;2023-02-18T15:20:52;95691.00;;;18.80
14023;BMP180;7086;48.116;11.580;2023-02-18T15:23:40;95691.00;;;18.50
14023;BMP180;7086;48.116;11.580;2023-02-18T15:26:21;95708.00;;;18.70
14023;BMP180;7086;48.116;11.580;2023-02-18T15:28:58;95709.00;;;18.70
14023;BMP180;7086;48.116;11.580;2023-02-18T15:31:57;95626.00;;;18.60
14023;BMP180;7086;48.116;11.580;2023-02-18T15:34:41;95716.00;;;18.60
14023;BMP180;7086;48.116;11.580;2023-02-18T15:37:23;95690.00;;;18.60
14023;BMP180;7086;48.116;11.580;2023-02-18T15:39:54;95707.00;;;18.60
14023;BMP180;7086;48.116;11.580;2023-02-18T15:42:36;95710.00;;;18.50
14023;BMP180;7086;48.116;11.580;2023-02-18T15:45:16;95700.00;;;18.50
14023;BMP180;7086;48.116;11.580;2023-02-18T15:48:26;95680.00;;;18.50
14023;BMP180;7086;48.116;11.580;2023-02-18T15:51:13;95613.00;;;18.30
14023;BMP180;7086;48.116;11.580;2023-02-18T15:53:46;95686.00;;;18.40
14023;BMP180;7086;48.116;11.580;2023-02-18T15:56:35;95700.00;;;18.30
14023;BMP180;7086;48.116;11.580;2023-02-18T15:59:23;95694.00;;;18.30
14023;BMP180;7086;48.116;11.580;2023-02-18T16:02:13;95652.00;;;18.20
14023;BMP180;7086;48.116;11.580;2023-02-18T16:05:41;95627.00;;;18.20
14023;BMP180;7086;48.116;11.580;2023-02-18T16:08:27;95614.00;;;18.00
14023;BMP180;7086;48.116;11.580;2023-02-18T16:16:27;95676.00;;;18.00
14023;BMP180;7086;48.116;11.580;2023-02-18T16:25:13;95676.00;;;17.90
14023;BMP180;7086;48.116;11.580;2023-02-18T16:27:53;95738.00;;;17.90
14023;BMP180;7086;48.116;11.580;2023-02-18T16:30:25;95708.00;;;17.80
14023;BMP180;7086;48.116;11.580;2023-02-18T16:32:56;95706.00;;;17.80
14023;BMP180;7086;48.116;11.580;2023-02-18T16:35:38;95654.00;;;17.70
14023;BMP180;7086;48.116;11.580;2023-02-18T16:38:23;95700.00;;;17.70
14023;BMP180;7086;48.116;11.580;2023-02-18T16:44:41;95692.00;;;17.60
14023;BMP180;7086;48.116;11.580;2023-02-18T16:47:16;95637.00;;;17.60
14023;BMP180;7086;48.116;11.580;2023-02-18T16:49:53;95678.00;;;17.50
14023;BMP180;7086;48.116;11.580;2023-02-18T16:52:39;95739.00;;;17.50
14023;BMP180;7086;48.116;11.580;2023-02-18T16:55:23;95654.00;;;17.50
14023;BMP180;7086;48.116;11.580;2023-02-18T16:58:07;95743.00;;;17.50
14023;BMP180;7086;48.116;11.580;2023-02-18T17:01:19;95731.00;;;17.40
14023;BMP180;7086;48.116;11.580;2023-02-18T17:04:00;95700.00;;;17.30
14023;BMP180;7086;48.116;11.580;2023-02-18T17:06:49;95701.00;;;17.30
14023;BMP180;7086;48.116;11.580;2023-02-18T17:09:31;95725.00;;;17.30
14023;BMP180;7086;48.116;11.580;2023-02-18T17:12:55;95707.00;;;17.30
14023;BMP180;7086;48.116;11.580;2023-02-18T17:15:41;95716.00;;;17.30
14023;BMP180;7086;48.116;11.580;2023-02-18T17:18:13;95721.00;;;17.30
14023;BMP180;7086;48.116;11.580;2023-02-18T17:20:40;95722.00;;;17.30
14023;BMP180;7086;48.116;11.580;2023-02-18T17:23:21;95733.00;;;17.20
14023;BMP180;7086;48.116;11.580;2023-02-18T17:26:04;95733.00;;;17.20
14023;BMP180;7086;48.116;11.580;2023-02-18T17:28:51;95737.00;;;17.20
14023;BMP180;7086;48.116;11.580;2023-02-18T17:31:40;95661.00;;;17.00
14023;BMP180;7086;48.116;11.580;2023-02-18T17:34:21;95663.00;;;17.20
14023;BMP180;7086;48.116;11.580;2023-02-18T17:37:04;95749.00;;;17.20
14023;BMP180;7086;48.116;11.580;2023-02-18T17:42:12;95696.00;;;17.20
14023;BMP180;7086;48.116;11.580;2023-02-18T17:44:42;95756.00;;;17.20
14023;BMP180;7086;48.116;11.580;2023-02-18T17:47:12;95736.00;;;17.20
14023;BMP180;7086;48.116;11.580;2023-02-18T17:50:10;95775.00;;;17.20
14023;BMP180;7086;48.116;11.580;2023-02-18T17:52:51;95760.00;;;17.10
14023;BMP180;7086;48.116;11.580;2023-02-18T17:55:36;95759.00;;;17.20
14023;BMP180;7086;48.116;11.580;2023-02-18T17:58:08;95699.00;;;17.20
14023;BMP180;7086;48.116;11.580;2023-02-18T18:00:52;95764.00;;;17.10
14023;BMP180;7086;48.116;11.580;2023-02-18T18:03:36;95727.00;;;17.10
14023;BMP180;7086;48.116;11.580;2023-02-18T18:06:16;95663.00;;;17.20
14023;BMP180;7086;48.116;11.580;2023-02-18T18:08:46;95757.00;;;17.20
14023;BMP180;7086;48.116;11.580;2023-02-18T18:11:21;95770.00;;;17.20
14023;BMP180;7086;48.116;11.580;2023-02-18T18:13:50;95734.00;;;17.10
14023;BMP180;7086;48.116;11.580;2023-02-18T18:16:20;95697.00;;;17.20
14023;BMP180;7086;48.116;11.580;2023-02-18T18:18:49;95791.00;;;17.20
14023;BMP180;7086;48.116;11.580;2023-02-18T18:21:23;95757.00;;;17.10
14023;BMP180;7086;48.116;11.580;2023-02-18T18:24:02;95773.00;;;17.10
14023;BMP180;7086;48.116;11.580;2023-02-18T18:26:30;95795.00;;;17.10
14023;BMP180;7086;48.116;11.580;2023-02-18T18:29:03;95787.00;;;17.10
14023;BMP180;7086;48.116;11.580;2023-02-18T18:31:34;95781.00;;;17.10
14023;BMP180;7086;48.116;11.580;2023-02-18T18:34:15;95746.00;;;17.10
14023;BMP180;7086;48.116;11.580;2023-02-18T18:37:16;95768.00;;;17.00
14023;BMP180;7086;48.116;11.580;2023-02-18T18:39:58;95753.00;;;17.00
14023;BMP180;7086;48.116;11.580;2023-02-18T18:42:28;95718.00;;;16.60
14023;BMP180;7086;48.116;11.580;2023-02-18T18:45:18;95698.00;;;17.00
14023;BMP180;7086;48.116;11.580;2023-02-18T18:47:52;95670.00;;;17.00
14023;BMP180;7086;48.116;11.580;2023-02-18T18:50:24;95697.00;;;17.00